Bookmark and Share
Track history (hours):
 

MSC Fortunate

Last reported at 2014-Apr-18 17:33 UTC. Time now 2014-Apr-18 18:14 UTC.
Position N 36°48' E 001°17'.

Length 275 m; draft 13.6 m.

Type: Ship. MMSI: 356708000.

NotesDate/timePositionNaut miles runAvg speedWind from/ knotsBaromVisibWave heightAir tempDewpointWater temp
2014-Apr-18 17:33N 36°48' E 001°17'3919.2
2014-Apr-18 15:30N 36°41' E 000°29'2219.1
2014-Apr-18 14:19N 36°37' E 000°02'12 2.8
2014-Apr-18 10:03N 36°35' W 000°13'0 0.1
2014-Apr-18 09:31N 36°35' W 000°13'0 0.2
2014-Apr-18 08:26N 36°35' W 000°13'2 1.9
2014-Apr-18 07:33N 36°35' W 000°15'7818.6
2014-Apr-18 03:21N 36°25' W 001°52'1718.5
2014-Apr-18 02:27N 36°22' W 002°12'13418.3
2014-Apr-17 19:06N 36°01' W 004°57'1019.4
2014-Apr-17 18:33N 35°60' W 005°09'2420.4
2014-Apr-17 17:23N 35°55' W 005°38'1820.5
2014-Apr-17 16:30N 35°55' W 006°01'7518.8
2014-Apr-17 12:30N 36°11' W 007°31'1818.7
2014-Apr-17 11:33N 36°16' W 007°52'2618.4
2014-Apr-17 10:09N 36°23' W 008°23'1218.3
2014-Apr-17 09:29N 36°26' W 008°38'1718.6
2014-Apr-17 08:33N 36°30' W 008°59'5117.0
2014-Apr-17 05:33N 37°10' W 009°39'1918.6
2014-Apr-17 04:31N 37°29' W 009°43'1919.0
2014-Apr-17 03:31N 37°48' W 009°49'1818.7
2014-Apr-17 02:32N 38°05' W 009°55'2718.9
2014-Apr-17 01:07N 38°32' W 010°02'  
2014-Apr-14 19:33N 49°50' W 001°14'1312.9
2014-Apr-14 18:33N 49°45' W 000°56'1313.5
2014-Apr-14 17:34N 49°39' W 000°37'1514.7
2014-Apr-14 16:33N 49°34' W 000°16'1312.9
2014-Apr-14 15:34N 49°30' E 000°03'4 3.8
2014-Apr-14 14:33N 49°28' E 000°08'0 0.0
2014-Apr-14 13:33N 49°28' E 000°08'0 0.0
2014-Apr-14 11:33N 49°28' E 000°08'0 0.0
2014-Apr-14 10:33N 49°28' E 000°08'0 0.0
2014-Apr-14 09:33N 49°28' E 000°08'0 0.0
2014-Apr-14 08:33N 49°28' E 000°08'0 0.0
2014-Apr-14 07:33N 49°28' E 000°08'0 0.0
2014-Apr-14 06:33N 49°28' E 000°08'0 0.0
2014-Apr-14 05:33N 49°28' E 000°08'60 7.3
2014-Apr-13 21:19N 50°28' E 000°01'1215.1
2014-Apr-13 20:33N 50°31' E 000°18'1515.0
2014-Apr-13 19:33N 50°37' E 000°40'1615.8
2014-Apr-13 18:33N 50°46' E 001°01'1817.7
2014-Apr-13 17:33N 50°58' E 001°22'1918.9
2014-Apr-13 16:33N 51°11' E 001°43'1717.0
2014-Apr-13 15:34N 51°25' E 001°59'1615.9
2014-Apr-13 14:32N 51°22' E 002°25'1414.5
2014-Apr-13 13:33N 51°25' E 002°47'1615.5
2014-Apr-13 12:33N 51°24' E 003°12'1514.6
2014-Apr-13 11:33N 51°26' E 003°35'1010.4
2014-Apr-13 10:34N 51°21' E 003°49'9 8.9
2014-Apr-13 09:33N 51°23' E 004°03'9 8.7
2014-Apr-13 08:34N 51°21' E 004°17'0 0.1
2014-Apr-13 07:34N 51°21' E 004°17'2 2.0
2014-Apr-13 06:34N 51°20' E 004°20'0 0.3
2014-Apr-13 05:31N 51°20' E 004°20'0 0.0
2014-Apr-13 04:31N 51°20' E 004°20'0 0.0
2014-Apr-13 03:13N 51°20' E 004°20'0 0.0
2014-Apr-13 02:31N 51°20' E 004°20'0 0.0
2014-Apr-13 01:31N 51°20' E 004°20'0 0.0
2014-Apr-13 00:28N 51°20' E 004°20'0 0.0
2014-Apr-12 23:31N 51°20' E 004°20'0 0.0
2014-Apr-12 22:31N 51°20' E 004°20'0 0.0
2014-Apr-12 21:31N 51°20' E 004°20'0 0.0
2014-Apr-12 20:25N 51°20' E 004°20'0 0.0
2014-Apr-12 19:31N 51°20' E 004°20'0 0.0
2014-Apr-12 18:31N 51°20' E 004°20'0 0.0
2014-Apr-12 17:31N 51°20' E 004°20'0 0.0
2014-Apr-12 16:31N 51°20' E 004°20'0 0.0
2014-Apr-12 15:31N 51°20' E 004°20'0 0.0
2014-Apr-12 14:28N 51°20' E 004°20'0 0.0
2014-Apr-12 13:28N 51°20' E 004°20'0 0.0
2014-Apr-12 12:31N 51°20' E 004°20'0 0.0
2014-Apr-12 11:31N 51°20' E 004°20'0 0.0
2014-Apr-12 10:31N 51°20' E 004°20'0 0.0
2014-Apr-12 09:28N 51°20' E 004°20'0 0.0
2014-Apr-12 08:31N 51°20' E 004°20'0 0.0
2014-Apr-12 07:22N 51°20' E 004°20'0 0.0
2014-Apr-12 06:31N 51°20' E 004°20'0 0.0
2014-Apr-12 05:28N 51°20' E 004°20'0 0.0
2014-Apr-12 04:31N 51°20' E 004°20'0 0.0
2014-Apr-12 03:28N 51°20' E 004°20'0 0.0
2014-Apr-12 02:31N 51°20' E 004°20'0 0.0
2014-Apr-12 01:31N 51°20' E 004°20'0 0.0
2014-Apr-12 00:31N 51°20' E 004°20'0 0.0
2014-Apr-11 23:28N 51°20' E 004°20'0 0.4
2014-Apr-11 22:33N 51°20' E 004°20'2 2.1
2014-Apr-11 21:34N 51°21' E 004°17'1 0.5
2014-Apr-11 20:34N 51°21' E 004°16'3 3.2
2014-Apr-11 19:31N 51°17' E 004°16'0 0.0
2014-Apr-11 18:31N 51°17' E 004°16'0 0.0
2014-Apr-11 17:31N 51°17' E 004°16'0 0.0
2014-Apr-11 16:31N 51°17' E 004°16'0 0.0
2014-Apr-11 15:31N 51°17' E 004°16'0 0.0
2014-Apr-11 14:28N 51°17' E 004°16'0 0.0
2014-Apr-11 13:28N 51°17' E 004°16'0 0.0
2014-Apr-11 12:31N 51°17' E 004°16'0 0.0
2014-Apr-11 11:31N 51°17' E 004°16'0 0.0
2014-Apr-11 10:28N 51°17' E 004°16'0 0.0
2014-Apr-11 09:31N 51°17' E 004°16'0 0.0
2014-Apr-11 08:31N 51°17' E 004°16'0 0.0
2014-Apr-11 07:31N 51°17' E 004°16'0 0.0
2014-Apr-11 06:34N 51°17' E 004°16'7 7.0
2014-Apr-11 05:33N 51°24' E 004°11'8 8.4
2014-Apr-11 04:33N 51°26' E 003°58'10 9.8
2014-Apr-11 03:34N 51°23' E 003°43'9 8.6
2014-Apr-11 02:33N 51°25' E 003°30'1716.8
2014-Apr-11 01:33N 51°24' E 003°03'1414.2
2014-Apr-11 00:33N 51°38' E 003°11'1413.8
2014-Apr-10 23:33N 51°51' E 003°16'1616.1
2014-Apr-10 22:33N 52°07' E 003°21'1716.6
2014-Apr-10 21:30N 52°24' E 003°26'1617.2
2014-Apr-10 20:33N 52°40' E 003°33'1817.8
2014-Apr-10 19:33N 52°53' E 003°53'1818.3
2014-Apr-10 18:33N 53°05' E 004°15'1818.3
2014-Apr-10 17:33N 53°20' E 004°33'1817.9
2014-Apr-10 16:33N 53°32' E 004°56'1818.3
2014-Apr-10 15:33N 53°38' E 005°25'1818.4
2014-Apr-10 14:33N 53°44' E 005°54'2919.5
2014-Apr-10 13:04N 53°52' E 006°41'5120.2
2014-Apr-10 10:33N 54°00' E 008°07'1515.5
2014-Apr-10 09:34N 53°58' E 008°32'1312.7
2014-Apr-10 08:34N 53°50' E 008°49'1312.6
2014-Apr-10 07:33N 53°53' E 009°10'9 9.5
2014-Apr-10 06:33N 53°47' E 009°23'1110.9
2014-Apr-10 05:33N 53°38' E 009°32'1111.1
2014-Apr-10 04:33N 53°33' E 009°49'3 3.2
2014-Apr-10 03:31N 53°32' E 009°55'0 0.0
2014-Apr-10 02:31N 53°32' E 009°55'0 0.0
2014-Apr-10 01:31N 53°32' E 009°55'0 0.0
2014-Apr-10 00:31N 53°32' E 009°55'0 0.0
2014-Apr-09 23:31N 53°32' E 009°55'0 0.0
2014-Apr-09 22:25N 53°32' E 009°55'0 0.0
2014-Apr-09 21:31N 53°32' E 009°55'0 0.0
2014-Apr-09 20:31N 53°32' E 009°55'0 0.0
2014-Apr-09 19:28N 53°32' E 009°55'0 0.0
2014-Apr-09 18:31N 53°32' E 009°55'0 0.0
2014-Apr-09 17:31N 53°32' E 009°55'0 0.0
2014-Apr-09 16:31N 53°32' E 009°55'0 0.0
2014-Apr-09 15:31N 53°32' E 009°55'0 0.0
2014-Apr-09 14:31N 53°32' E 009°55'0 0.0
2014-Apr-09 13:28N 53°32' E 009°55'0 0.0
2014-Apr-09 12:31N 53°32' E 009°55'0 0.0
2014-Apr-09 11:31N 53°32' E 009°55'0 0.0
2014-Apr-09 10:31N 53°32' E 009°55'0 0.0
2014-Apr-09 09:31N 53°32' E 009°55'0 0.0
2014-Apr-09 08:22N 53°32' E 009°55'0 0.0
2014-Apr-09 07:31N 53°32' E 009°55'0 0.0
2014-Apr-09 06:28N 53°32' E 009°55'0 0.0
2014-Apr-09 05:31N 53°32' E 009°55'0 0.0
2014-Apr-09 04:19N 53°32' E 009°55'0 0.0
2014-Apr-09 03:31N 53°32' E 009°55'0 0.0
2014-Apr-09 02:31N 53°32' E 009°55'0 0.0
2014-Apr-09 01:31N 53°32' E 009°55'0 0.0
2014-Apr-09 00:31N 53°32' E 009°55'0 0.0
2014-Apr-08 23:31N 53°32' E 009°55'0 0.0
2014-Apr-08 22:31N 53°32' E 009°55'4 3.7
2014-Apr-08 21:33N 53°33' E 009°49'9 9.2
2014-Apr-08 20:34N 53°37' E 009°34'1211.6
2014-Apr-08 19:34N 53°46' E 009°24'1212.3
2014-Apr-08 18:33N 53°53' E 009°06'1313.3
2014-Apr-08 17:34N 53°52' E 008°43'  

Dump ship's entire track history

sailing weather and tide predictions

MSC Fortunate — 3FLG6 — position and weather